M I D A S
Marine Information and Data Acquisition System
Tripno 2081 of the Zeeleeuw from 2011-04-20 06:41:16 to 2011-04-20 14:45:01
Back to CruiseResearch ActivitiesStationsMapUnderway DataData graphs

EquipmentUnitsComment
TimeDGPSUTC
LatitudeDGPSDM.mWGS84
LongitudeDGPSDM.mWGS84
TemperatureSBE03/SBE38deg celciusITS90
ConductivitySBE21S/mITS90
SalinitySBE21 Practical Salinity Units
ChlorophylAChelsea fluorimeterg/lCalibrated in Aceton
Missing or incorrect values are displayed as -999
Sea surface data collected by the RV Zeeleeuw from 2011-04-20 06:39:02 to 2011-04-20 14:47:07
Time Latitude Longitude Temperature Conductivity Salinity ChlorophylA
2011-04-20 06:40:10 51°13.677 2°55.892 19.9743 0.009708 0.04981 -3.020363
2011-04-20 06:41:10 51°13.69 2°55.798 19.9993 0.009708 0.04982 -3.020363
2011-04-20 06:42:09 51°13.692 2°55.742 20.0054 0.009708 0.049827 -3.020363
2011-04-20 06:43:10 51°13.709 2°55.748 20.014 0.009708 0.049833 -3.020363
2011-04-20 06:44:09 51°13.752 2°55.716 20.03 0.009708 0.04984 -3.020363
2011-04-20 06:45:09 51°13.862 2°55.614 19.7755 0.009708 0.049845 -3.020363
2011-04-20 06:46:09 51°14.02 2°55.501 19.7336 0.009605 0.049405 -3.020363
2011-04-20 06:47:10 51°14.186 2°55.369 19.8597 0.009605 0.049417 -3.020363
2011-04-20 06:48:10 51°14.303 2°55.253 19.928 0.009605 0.049435 -3.020363
2011-04-20 06:49:10 51°14.381 2°55.174 19.9779 0.009605 0.049454 -3.020363
2011-04-20 06:50:10 51°14.459 2°55.087 19.9737 0.009605 0.049468 -3.020363
2011-04-20 06:51:08 51°14.574 2°54.89 19.7135 0.009605 0.049478 -3.020363
2011-04-20 06:52:06 51°14.705 2°54.622 19.8695 0.009605 0.049488 -3.020363
2011-04-20 06:53:06 51°14.839 2°54.339 19.6853 0.009605 0.049504 -3.020363
2011-04-20 06:54:06 51°15.003 2°54.12 19.7693 0.009605 0.04952 -3.020363
2011-04-20 06:55:06 51°15.167 2°53.897 19.6236 0.009605 0.049541 -3.020363
2011-04-20 06:56:06 51°15.357 2°53.74 19.8316 0.009605 0.049566 -3.020363
2011-04-20 06:57:06 51°15.551 2°53.587 19.6731 0.009605 0.049594 -3.020363
2011-04-20 06:58:06 51°15.757 2°53.52 19.7343 0.009605 0.049629 -3.020363
2011-04-20 06:59:07 51°15.959 2°53.39 19.7364 0.009605 0.049661 -3.020363
2011-04-20 07:00:06 51°16.153 2°53.26 19.771 0.009605 0.04969 -3.020363
2011-04-20 07:01:07 51°16.354 2°53.116 19.7616 0.009605 0.049718 -3.020363
2011-04-20 07:02:06 51°16.548 2°52.974 19.725 0.009605 0.049749 -3.020363
2011-04-20 07:03:06 51°16.743 2°52.828 19.7261 0.009605 0.049779 -3.020363
2011-04-20 07:04:06 51°16.932 2°52.682 19.6841 0.009605 0.049805 -3.020363
2011-04-20 07:05:07 51°17.126 2°52.531 19.6728 0.009503 0.049387 -3.020363
2011-04-20 07:06:07 51°17.317 2°52.379 19.7856 0.009503 0.049417 -3.020363
2011-04-20 07:07:06 51°17.504 2°52.218 19.6838 0.009503 0.049454 -3.020363
2011-04-20 07:08:07 51°17.703 2°52.074 19.77 0.009503 0.049491 -3.020363
2011-04-20 07:09:07 51°17.893 2°51.919 19.6859 0.009503 0.049523 -3.020363
2011-04-20 07:10:07 51°18.087 2°51.773 19.7236 0.009503 0.049562 -3.020363
2011-04-20 07:11:06 51°18.278 2°51.619 19.7472 0.009503 0.049595 -3.020363
2011-04-20 07:12:07 51°18.474 2°51.458 19.6994 0.009503 0.049632 -3.020363
2011-04-20 07:13:06 51°18.667 2°51.31 19.7081 0.009503 0.049665 -3.020363
2011-04-20 07:14:06 51°18.861 2°51.151 19.7167 0.009503 0.049699 -3.020363
2011-04-20 07:15:06 51°19.055 2°50.99 19.7355 0.009503 0.049731 -3.020363
2011-04-20 07:16:06 51°19.251 2°50.827 19.7216 0.009503 0.049758 -3.020363
2011-04-20 07:17:07 51°19.45 2°50.667 19.739 0.0094 0.049321 -3.020363
2011-04-20 07:18:06 51°19.644 2°50.521 19.7548 0.0094 0.04934 -3.020363
2011-04-20 07:19:07 51°19.846 2°50.363 19.7335 0.0094 0.049364 -3.020363
2011-04-20 07:20:06 51°20.042 2°50.214 19.7505 0.0094 0.049372 -3.020363
2011-04-20 07:21:06 51°20.241 2°50.062 19.7466 0.0094 0.049393 -3.020363
2011-04-20 07:22:06 51°20.44 2°49.917 19.7202 0.0094 0.049419 -3.020363
2011-04-20 07:23:06 51°20.64 2°49.766 19.7299 0.0094 0.049441 -3.020363
2011-04-20 07:24:06 51°20.84 2°49.615 19.7395 0.0094 0.049468 -3.020363
2011-04-20 07:25:06 51°21.039 2°49.461 19.7705 0.0094 0.049492 -3.020363
2011-04-20 07:26:07 51°21.24 2°49.303 19.7487 0.0094 0.049524 -3.020363
2011-04-20 07:27:06 51°21.437 2°49.153 19.7585 0.0094 0.049547 -3.020363
2011-04-20 07:28:07 51°21.641 2°48.996 19.7809 0.009297 0.049108 -3.020363
2011-04-20 07:29:06 51°21.84 2°48.843 19.7804 0.009297 0.049137 -3.020363
2011-04-20 07:30:07 51°22.047 2°48.688 19.7904 0.009297 0.049168 -3.020363
2011-04-20 07:31:06 51°22.247 2°48.541 19.7758 0.009297 0.049199 -3.020363
2011-04-20 07:32:06 51°22.451 2°48.39 19.803 0.009297 0.049226 -3.020363
2011-04-20 07:33:06 51°22.652 2°48.242 19.7458 0.009297 0.049254 -3.020363
2011-04-20 07:34:06 51°22.852 2°48.099 19.7712 0.009297 0.049278 -3.020363
2011-04-20 07:35:06 51°23.051 2°47.952 19.7865 0.009297 0.049305 -3.020363
2011-04-20 07:36:06 51°23.249 2°47.801 19.7946 0.009297 0.049333 -3.020363
2011-04-20 07:37:07 51°23.451 2°47.652 19.809 0.009297 0.049362 -3.020363
2011-04-20 07:38:06 51°23.645 2°47.502 19.8124 0.009297 0.049389 -3.020363
2011-04-20 07:39:07 51°23.846 2°47.347 19.8238 0.009297 0.04942 -3.020363
2011-04-20 07:40:06 51°24.04 2°47.195 19.8388 0.009194 0.048978 -3.020363
2011-04-20 07:41:06 51°24.237 2°47.041 19.8409 0.009194 0.049002 -3.020363
2011-04-20 07:42:06 51°24.435 2°46.889 19.8427 0.009194 0.049031 -3.020363
2011-04-20 07:43:06 51°24.632 2°46.737 19.848 0.009194 0.049057 -3.020363
2011-04-20 07:44:07 51°24.832 2°46.581 19.8485 0.009194 0.049086 -3.020363
2011-04-20 07:45:06 51°25.026 2°46.432 19.8477 0.009194 0.049115 -3.020363
2011-04-20 07:46:07 51°25.228 2°46.277 19.8786 0.009194 0.049142 -3.020363
2011-04-20 07:47:06 51°25.424 2°46.125 19.8793 0.009194 0.049171 -3.020363
2011-04-20 07:48:07 51°25.627 2°45.972 19.9061 0.009194 0.049195 -3.020363
2011-04-20 07:49:06 51°25.822 2°45.825 19.9082 0.009194 0.049221 -3.020363
2011-04-20 07:50:07 51°26.024 2°45.674 19.9051 0.009092 0.048771 -3.020363
2011-04-20 07:51:06 51°26.218 2°45.527 19.9186 0.009092 0.048795 -3.020363
2011-04-20 07:52:06 51°26.418 2°45.379 19.938 0.009092 0.048824 -3.020363
2011-04-20 07:53:06 51°26.617 2°45.234 19.934 0.009092 0.04885 -3.020363
2011-04-20 07:54:06 51°26.812 2°45.084 19.9578 0.009092 0.048875 -3.020363
2011-04-20 07:55:07 51°27.009 2°44.933 19.9398 0.009092 0.0489 -3.020363
2011-04-20 07:56:06 51°27.201 2°44.786 19.9502 0.009092 0.048926 -3.020363
2011-04-20 07:57:07 51°27.4 2°44.636 19.9383 0.009092 0.048956 -3.020363
2011-04-20 07:58:06 51°27.592 2°44.49 19.9466 0.009092 0.048979 -3.020363
2011-04-20 07:59:07 51°27.791 2°44.339 19.9594 0.009092 0.048983 -3.020363
2011-04-20 08:00:06 51°27.985 2°44.196 19.8871 0.009092 0.049003 -3.020363
2011-04-20 08:01:07 51°28.184 2°44.046 19.982 0.008989 0.048571 -3.020363
2011-04-20 08:02:06 51°28.376 2°43.903 19.9608 0.008989 0.04859 -3.020363
2011-04-20 08:03:06 51°28.574 2°43.759 19.9276 0.008989 0.048605 -3.020363
2011-04-20 08:04:07 51°28.773 2°43.614 19.9389 0.008989 0.048617 -3.020363
2011-04-20 08:05:06 51°28.964 2°43.475 19.9668 0.008989 0.048644 -3.020363
2011-04-20 08:06:07 51°29.156 2°43.327 19.9639 0.008989 0.04867 -3.020363
2011-04-20 08:07:06 51°29.343 2°43.199 19.9568 0.008989 0.048691 -3.020363
2011-04-20 08:08:07 51°29.542 2°43.158 19.9642 0.008989 0.048765 -3.020363
2011-04-20 08:09:06 51°29.725 2°43.243 19.9888 0.008989 0.048776 -3.020363
2011-04-20 08:10:06 51°29.915 2°43.306 19.9948 0.008989 0.048818 -3.020363
2011-04-20 08:11:06 51°30.111 2°43.321 19.9949 0.008989 0.048818 -3.020363
2011-04-20 08:12:06 51°30.3 2°43.392 20.0041 0.008886 0.048369 -3.020363
2011-04-20 08:13:07 51°30.489 2°43.466 19.9942 0.008886 0.048406 -3.020363
2011-04-20 08:14:06 51°30.672 2°43.541 19.9778 0.008886 0.048443 -3.020363
2011-04-20 08:15:07 51°30.846 2°43.669 20.0286 0.008886 0.048487 -3.020363
2011-04-20 08:16:06 51°31.025 2°43.759 20.048 0.008886 0.048501 -3.020363
2011-04-20 08:17:07 51°31.21 2°43.852 20.0874 0.008886 0.048538 -3.020363
2011-04-20 08:18:06 51°31.386 2°43.949 20.0705 0.008886 0.048561 -3.020363
2011-04-20 08:19:07 51°31.568 2°44.043 20.0085 0.008886 0.04862 -3.020363
2011-04-20 08:20:06 51°31.737 2°44.157 20.0719 0.008886 0.048654 -3.020363
2011-04-20 08:21:06 51°31.913 2°44.265 20.1085 0.008886 0.04869 -3.020363
2011-04-20 08:22:06 51°32.097 2°44.338 20.088 0.008783 0.048199 -3.020363
2011-04-20 08:23:06 51°32.259 2°44.486 20.1124 0.008783 0.04824 -3.020363
2011-04-20 08:24:06 51°32.433 2°44.6 20.0792 0.008783 0.048278 -3.020363
2011-04-20 08:25:06 51°32.613 2°44.696 20.1089 0.008783 0.048298 -3.020363
2011-04-20 08:26:07 51°32.794 2°44.8 20.1082 0.008783 0.04832 -3.020363
2011-04-20 08:27:06 51°32.969 2°44.897 20.1557 0.008783 0.048359 -3.020363
2011-04-20 08:28:07 51°33.163 2°44.919 20.1429 0.008783 0.048394 -3.020363
2011-04-20 08:29:06 51°33.343 2°44.969 20.1491 0.008783 0.048385 -3.020363
2011-04-20 08:30:06 51°33.516 2°45.079 20.1418 0.008783 0.048451 -3.020363
2011-04-20 08:31:06 51°33.692 2°45.18 20.1366 0.008783 0.048464 -3.020363
2011-04-20 08:32:06 51°33.869 2°45.283 20.1522 0.00868 0.047986 -3.020363
2011-04-20 08:33:07 51°34.053 2°45.363 20.1504 0.00868 0.048026 -3.020363
2011-04-20 08:34:06 51°34.242 2°45.369 20.1437 0.00868 0.048059 -3.020363
2011-04-20 08:35:07 51°34.383 2°45.288 20.1985 0.00868 0.048095 -3.020363
2011-04-20 08:36:06 51°34.394 2°45.198 20.2131 0.00868 0.048151 -3.020363
2011-04-20 08:37:07 51°34.39 2°45.111 20.2087 0.00868 0.048193 -3.020363
2011-04-20 08:38:06 51°34.383 2°45.033 20.225 0.00868 0.048208 -3.020363
2011-04-20 08:39:07 51°34.372 2°44.96 20.2256 0.00868 0.048211 -3.020363
2011-04-20 08:40:06 51°34.36 2°44.894 20.2248 0.00868 0.04822 -3.020363
2011-04-20 08:41:06 51°34.346 2°44.825 20.2445 0.00868 0.048226 -3.020363
2011-04-20 08:42:06 51°34.339 2°44.681 20.2695 0.00868 0.04823 -3.020363
2011-04-20 08:43:06 51°34.367 2°44.414 20.2278 0.008578 0.047732 -3.020363
2011-04-20 08:44:07 51°34.477 2°44.131 20.2149 0.008578 0.047725 -3.020363
2011-04-20 08:45:06 51°34.657 2°44.018 20.2282 0.008578 0.047732 -3.020363
2011-04-20 08:46:07 51°34.849 2°44.033 20.2538 0.008578 0.047729 -3.020363
2011-04-20 08:47:06 51°35.009 2°44.174 20.2008 0.008578 0.047761 -3.020363
2011-04-20 08:48:06 51°35.165 2°44.33 20.2406 0.008578 0.047771 -3.020363
2011-04-20 08:49:06 51°35.291 2°44.546 20.282 0.008578 0.047788 -3.020363
2011-04-20 08:50:06 51°35.392 2°44.799 20.29 0.008578 0.04782 -3.020363
2011-04-20 08:51:06 51°35.5 2°45.044 20.287 0.008578 0.047843 -3.020363
2011-04-20 08:52:06 51°35.622 2°45.265 20.2858 0.008578 0.047864 -3.020363
2011-04-20 08:53:07 51°35.764 2°45.467 20.3203 0.008578 0.047877 -3.020363
2011-04-20 08:54:06 51°35.91 2°45.645 20.2833 0.008578 0.047842 -3.020363
2011-04-20 08:55:07 51°36.041 2°45.866 20.2953 0.008578 0.047824 -3.020363
2011-04-20 08:56:06 51°36.141 2°46.113 20.3126 0.008578 0.047841 -3.020363
2011-04-20 08:57:06 51°36.236 2°46.368 20.3291 0.008475 0.047357 -3.020363
2011-04-20 08:58:06 51°36.35 2°46.601 20.3112 0.008475 0.047367 -3.020363
2011-04-20 08:59:06 51°36.462 2°46.831 20.3285 0.008475 0.04739 -3.020363
2011-04-20 09:00:06 51°36.597 2°47.024 20.3269 0.008475 0.047407 -3.020363
2011-04-20 09:01:06 51°36.744 2°47.192 20.3593 0.008475 0.047413 -3.020363
2011-04-20 09:02:07 51°36.906 2°47.335 20.3415 0.008475 0.047437 -3.020363
2011-04-20 09:03:06 51°37.074 2°47.441 20.2794 0.008475 0.047455 -3.020363
2011-04-20 09:04:07 51°37.243 2°47.558 20.3547 0.008475 0.04747 -3.020363
2011-04-20 09:05:06 51°37.392 2°47.714 20.3748 0.008475 0.047487 -3.020363
2011-04-20 09:06:06 51°37.551 2°47.85 20.3578 0.008475 0.047507 -3.020363
2011-04-20 09:07:06 51°37.702 2°48.004 20.3768 0.008475 0.047521 -3.020363
2011-04-20 09:08:06 51°37.864 2°48.135 20.3662 0.008475 0.047542 -3.020363
2011-04-20 09:09:06 51°38.018 2°48.286 20.3952 0.008475 0.047557 -3.020363
2011-04-20 09:10:06 51°38.179 2°48.419 20.4221 0.008475 0.047577 -3.020363
2011-04-20 09:11:07 51°38.345 2°48.546 20.4109 0.008372 0.047091 -3.020363
2011-04-20 09:12:06 51°38.501 2°48.683 20.4129 0.008372 0.047111 -3.020363
2011-04-20 09:13:07 51°38.667 2°48.813 20.4014 0.008372 0.047125 -3.020363
2011-04-20 09:14:06 51°38.827 2°48.938 20.4277 0.008372 0.047144 -3.020363
2011-04-20 09:15:07 51°38.995 2°49.062 20.4188 0.008372 0.047157 -3.020363
2011-04-20 09:16:06 51°39.151 2°49.2 20.4254 0.008372 0.047173 -3.020363
2011-04-20 09:17:06 51°39.315 2°49.327 20.449 0.008372 0.047185 -3.020363
2011-04-20 09:18:06 51°39.484 2°49.433 20.4369 0.008372 0.0472 -3.020363
2011-04-20 09:19:06 51°39.662 2°49.507 20.4273 0.008372 0.047214 -3.020363
2011-04-20 09:20:07 51°39.837 2°49.612 20.4612 0.008372 0.047231 -3.020363
2011-04-20 09:21:06 51°40.003 2°49.725 20.4644 0.008372 0.047245 -3.020363
2011-04-20 09:22:07 51°40.182 2°49.82 20.4724 0.008372 0.047261 -3.020363
2011-04-20 09:23:06 51°40.362 2°49.871 20.4772 0.008372 0.047277 -3.020363
2011-04-20 09:24:07 51°40.55 2°49.919 20.4659 0.008372 0.047293 -3.020363
2011-04-20 09:25:06 51°40.727 2°49.986 20.4904 0.008372 0.047309 -3.020363
2011-04-20 09:26:06 51°40.902 2°50.077 20.4784 0.008372 0.047326 -3.020363
2011-04-20 09:27:06 51°41.082 2°50.133 20.4703 0.008269 0.04684 -3.020363
2011-04-20 09:28:06 51°41.268 2°50.148 20.5038 0.008269 0.046849 -3.020363
2011-04-20 09:29:06 51°41.454 2°50.113 20.5496 0.008269 0.046882 -3.020363
2011-04-20 09:30:06 51°41.6 2°49.88 20.4804 0.008269 0.04689 -3.020363
2011-04-20 09:31:06 51°41.75 2°49.642 20.4924 0.008269 0.046896 -3.020363
2011-04-20 09:32:06 51°41.913 2°49.434 20.4919 0.008269 0.046913 -3.020363
2011-04-20 09:33:07 51°42.082 2°49.236 20.5 0.008269 0.04693 -3.020363
2011-04-20 09:34:06 51°42.236 2°49.01 20.5076 0.008269 0.046948 -3.020363
2011-04-20 09:35:06 51°42.363 2°48.725 20.5283 0.008269 0.046967 -3.020363
2011-04-20 09:36:06 51°42.404 2°48.367 20.6018 0.008269 0.046997 -3.020363
2011-04-20 09:37:06 51°42.259 2°48.059 20.5271 0.008269 0.047007 -3.020363
2011-04-20 09:38:06 51°42.031 2°47.907 20.5019 0.008269 0.047011 -3.020363
2011-04-20 09:39:06 51°41.804 2°47.739 20.5127 0.008269 0.047019 -3.020363
2011-04-20 09:40:06 51°41.576 2°47.572 20.5257 0.008269 0.047032 -3.020363
2011-04-20 09:41:06 51°41.356 2°47.381 20.528 0.008269 0.04704 -3.020363
2011-04-20 09:42:06 51°41.139 2°47.182 20.5229 0.008269 0.047057 -3.020363
2011-04-20 09:43:06 51°40.908 2°47.026 20.5244 0.008269 0.04706 -3.020363
2011-04-20 09:44:06 51°40.68 2°46.869 20.5462 0.008166 0.046556 -3.020363
2011-04-20 09:45:06 51°40.451 2°46.715 20.5409 0.008166 0.046566 -3.020363
2011-04-20 09:46:06 51°40.219 2°46.568 20.5468 0.008166 0.046573 -3.020363
2011-04-20 09:47:06 51°39.986 2°46.433 20.5447 0.008166 0.046583 -3.020363
2011-04-20 09:48:06 51°39.749 2°46.323 20.5829 0.008166 0.046589 -3.020363
2011-04-20 09:49:06 51°39.509 2°46.233 20.5461 0.008166 0.046597 -3.020363
2011-04-20 09:50:06 51°39.272 2°46.124 20.554 0.008166 0.046605 -3.020363
2011-04-20 09:51:06 51°39.032 2°46.029 20.5751 0.008166 0.04662 -3.020363
2011-04-20 09:52:06 51°38.794 2°45.929 20.5672 0.008166 0.046625 -3.020363
2011-04-20 09:53:06 51°38.556 2°45.83 20.6109 0.008166 0.046636 -3.020363
2011-04-20 09:54:06 51°38.319 2°45.747 20.564 0.008166 0.046646 -3.020363
2011-04-20 09:55:06 51°38.083 2°45.652 20.6095 0.008166 0.046659 -3.020363
2011-04-20 09:56:06 51°37.843 2°45.583 20.6088 0.008166 0.04668 -3.020363
2011-04-20 09:57:06 51°37.603 2°45.517 20.5961 0.008166 0.046687 -3.020363
2011-04-20 09:58:06 51°37.371 2°45.383 20.5869 0.008166 0.046694 -3.020363
2011-04-20 09:59:06 51°37.137 2°45.259 20.6111 0.008166 0.046708 -3.020363
2011-04-20 10:00:06 51°36.903 2°45.137 20.617 0.008166 0.046715 -3.020363
2011-04-20 10:01:06 51°36.667 2°45.013 20.6301 0.008166 0.046722 -3.020363
2011-04-20 10:02:06 51°36.432 2°44.89 20.6187 0.008166 0.046731 -3.020363
2011-04-20 10:03:06 51°36.198 2°44.771 20.6282 0.008166 0.046735 -3.020363
2011-04-20 10:04:06 51°35.964 2°44.651 20.6357 0.008166 0.046745 -3.020363
2011-04-20 10:05:06 51°35.727 2°44.557 20.6277 0.008166 0.046749 -3.020363
2011-04-20 10:06:06 51°35.498 2°44.412 20.6357 0.008166 0.046757 -3.020363
2011-04-20 10:07:06 51°35.263 2°44.29 20.6402 0.008166 0.046766 -3.020363
2011-04-20 10:08:06 51°35.028 2°44.164 20.6407 0.008166 0.046773 -3.020363
2011-04-20 10:09:06 51°34.797 2°44.019 20.6522 0.008064 0.046262 -3.020363
2011-04-20 10:10:06 51°34.57 2°43.857 20.6494 0.008064 0.046271 -3.020363
2011-04-20 10:11:06 51°34.331 2°43.774 20.6028 0.008064 0.046279 -3.020363
2011-04-20 10:12:06 51°34.095 2°43.672 20.6554 0.008064 0.046285 -3.020363
2011-04-20 10:13:06 51°33.868 2°43.526 20.6578 0.008064 0.046293 -3.020363
2011-04-20 10:14:06 51°33.644 2°43.363 20.6814 0.008064 0.046301 -3.020363
2011-04-20 10:15:06 51°33.417 2°43.216 20.6133 0.008064 0.046309 -3.020363
2011-04-20 10:16:06 51°33.234 2°42.976 20.6802 0.008064 0.046308 -3.020363
2011-04-20 10:17:06 51°33.134 2°42.621 20.7124 0.008064 0.046321 -3.020363
2011-04-20 10:18:06 51°33.021 2°42.273 20.6898 0.008064 0.046329 -3.020363
2011-04-20 10:19:06 51°32.867 2°41.96 20.7018 0.008064 0.046337 -3.020363
2011-04-20 10:20:06 51°32.706 2°41.654 20.7187 0.008064 0.046344 -3.020363
2011-04-20 10:21:06 51°32.569 2°41.321 20.676 0.008064 0.046351 -3.020363
2011-04-20 10:22:06 51°32.461 2°40.965 20.6862 0.008064 0.046358 -3.020363
2011-04-20 10:23:06 51°32.378 2°40.598 20.7063 0.008064 0.046364 -3.020363
2011-04-20 10:24:06 51°32.363 2°40.224 20.6407 0.008064 0.046366 -3.020363
2011-04-20 10:25:06 51°32.507 2°40.066 20.649 0.008064 0.046372 -3.020363
2011-04-20 10:26:06 51°32.626 2°40.267 20.7561 0.008064 0.046389 -3.020363
2011-04-20 10:27:06 51°32.761 2°40.45 20.7213 0.008064 0.046404 -3.020363
2011-04-20 10:28:06 51°32.922 2°40.581 20.7291 0.008064 0.046416 -3.020363
2011-04-20 10:29:06 51°33.077 2°40.723 20.7415 0.008064 0.046431 -3.020363
2011-04-20 10:30:06 51°33.258 2°40.768 20.7143 0.008064 0.046445 -3.020363
2011-04-20 10:31:06 51°33.435 2°40.846 20.7156 0.008064 0.046461 -3.020363
2011-04-20 10:32:06 51°33.603 2°40.959 20.7256 0.008064 0.04648 -3.020363
2011-04-20 10:33:06 51°33.758 2°41.109 20.7562 0.008064 0.0465 -3.020363
2011-04-20 10:34:06 51°33.917 2°41.25 20.7228 0.008064 0.046521 -3.020363
2011-04-20 10:35:06 51°34.084 2°41.367 20.7132 0.008064 0.046542 -3.020363
2011-04-20 10:36:06 51°34.254 2°41.479 20.7439 0.008064 0.04656 -3.020363
2011-04-20 10:37:06 51°34.425 2°41.585 20.7507 0.007961 0.046056 -3.020363
2011-04-20 10:38:07 51°34.6 2°41.683 20.7085 0.007961 0.046075 -3.020363
2011-04-20 10:39:06 51°34.772 2°41.778 20.7362 0.007961 0.046096 -3.020363
2011-04-20 10:40:06 51°34.946 2°41.876 20.7589 0.007961 0.046119 -3.020363
2011-04-20 10:41:06 51°35.124 2°41.955 20.7534 0.007961 0.046141 -3.020363
2011-04-20 10:42:06 51°35.299 2°42.055 20.7903 0.007961 0.046163 -3.020363
2011-04-20 10:43:06 51°35.484 2°42.102 20.7653 0.007961 0.046185 -3.020363
2011-04-20 10:44:06 51°35.665 2°42.178 20.7752 0.007961 0.0462 -3.020363
2011-04-20 10:45:06 51°35.845 2°42.269 20.7617 0.007961 0.046222 -3.020363
2011-04-20 10:46:06 51°36.026 2°42.362 20.7853 0.007961 0.046247 -3.020363
2011-04-20 10:47:06 51°36.21 2°42.439 20.7748 0.007961 0.046265 -3.020363
2011-04-20 10:48:06 51°36.389 2°42.533 20.7921 0.007961 0.046289 -3.020363
2011-04-20 10:49:06 51°36.573 2°42.604 20.7693 0.007961 0.046306 -3.020363
2011-04-20 10:50:06 51°36.747 2°42.715 20.7981 0.007961 0.046323 -3.020363
2011-04-20 10:51:06 51°36.922 2°42.818 20.8013 0.007961 0.046352 -3.020363
2011-04-20 10:52:06 51°37.106 2°42.889 20.7914 0.007961 0.04637 -3.020363
2011-04-20 10:53:06 51°37.285 2°42.983 20.8102 0.007961 0.046389 -3.020363
2011-04-20 10:54:06 51°37.459 2°43.097 20.8089 0.007961 0.046405 -3.020363
2011-04-20 10:55:06 51°37.628 2°43.229 20.8207 0.007858 0.045896 -3.020363
2011-04-20 10:56:06 51°37.802 2°43.347 20.8277 0.007858 0.045912 -3.020363
2011-04-20 10:57:06 51°37.977 2°43.455 20.8133 0.007858 0.045924 -3.020363
2011-04-20 10:58:06 51°38.149 2°43.578 20.8056 0.007858 0.045918 -3.020363
2011-04-20 10:59:06 51°38.326 2°43.681 20.8304 0.007858 0.045927 -3.020363
2011-04-20 11:00:06 51°38.509 2°43.763 20.8448 0.007858 0.045938 -3.020363
2011-04-20 11:01:06 51°38.688 2°43.855 20.8344 0.007858 0.045961 -3.020363
2011-04-20 11:02:07 51°38.877 2°43.922 20.8268 0.007858 0.045976 -3.020363
2011-04-20 11:03:06 51°39.059 2°43.983 20.8457 0.007858 0.045991 -3.020363
2011-04-20 11:04:07 51°39.244 2°44.068 20.8351 0.007858 0.046013 -3.020363
2011-04-20 11:05:06 51°39.422 2°44.152 20.838 0.007858 0.046026 -3.020363
2011-04-20 11:06:06 51°39.601 2°44.252 20.8696 0.007858 0.046053 -3.020363
2011-04-20 11:07:06 51°39.789 2°44.299 20.856 0.007858 0.046075 -3.020363
2011-04-20 11:08:06 51°39.97 2°44.393 20.8827 0.007858 0.046085 -3.020363
2011-04-20 11:09:06 51°40.145 2°44.51 20.8778 0.007858 0.0461 -3.020363
2011-04-20 11:10:06 51°40.323 2°44.612 20.8821 0.007858 0.046118 -3.020363
2011-04-20 11:11:06 51°40.504 2°44.711 20.8629 0.007858 0.046137 -3.020363
2011-04-20 11:12:06 51°40.675 2°44.846 20.8658 0.007858 0.046154 -3.020363
2011-04-20 11:13:06 51°40.857 2°44.943 20.8626 0.007858 0.046177 -3.020363
2011-04-20 11:14:06 51°41.036 2°45.051 20.8738 0.007755 0.045652 -3.020363
2011-04-20 11:15:06 51°41.215 2°45.164 20.8789 0.007755 0.045675 -3.020363
2011-04-20 11:16:06 51°41.394 2°45.274 20.8931 0.007755 0.045694 -3.020363
2011-04-20 11:17:06 51°41.584 2°45.338 20.8785 0.007755 0.04571 -3.020363
2011-04-20 11:18:07 51°41.775 2°45.422 20.8776 0.007755 0.045726 -3.020363
2011-04-20 11:19:06 51°41.953 2°45.531 20.8802 0.007755 0.045741 -3.020363
2011-04-20 11:20:06 51°42.135 2°45.636 20.8848 0.007755 0.045774 -3.020363
2011-04-20 11:21:06 51°42.319 2°45.74 20.8911 0.007755 0.045791 -3.020363
2011-04-20 11:22:06 51°42.504 2°45.836 20.9046 0.007755 0.045826 -3.020363
2011-04-20 11:23:06 51°42.69 2°45.93 20.9018 0.007755 0.045849 -3.020363
2011-04-20 11:24:06 51°42.878 2°46.014 20.9027 0.007755 0.045868 -3.020363
2011-04-20 11:25:06 51°43.059 2°46.13 20.9711 0.007755 0.045883 -3.020363
2011-04-20 11:26:06 51°43.235 2°46.071 20.914 0.007755 0.045911 -3.020363
2011-04-20 11:27:06 51°43.377 2°45.825 20.9041 0.007755 0.045918 -3.020363
2011-04-20 11:28:06 51°43.533 2°45.602 20.9128 0.007755 0.045922 -3.020363
2011-04-20 11:29:06 51°43.694 2°45.389 20.9123 0.007755 0.045933 -3.020363
2011-04-20 11:30:06 51°43.852 2°45.173 20.9225 0.007755 0.045947 -3.020363
2011-04-20 11:31:06 51°44.007 2°44.946 20.9225 0.007755 0.045949 -3.020363
2011-04-20 11:32:06 51°44.172 2°44.747 20.9027 0.007755 0.045951 -3.020363
2011-04-20 11:33:06 51°44.346 2°44.575 21.0274 0.007755 0.04595 -3.020363
2011-04-20 11:34:06 51°44.371 2°44.27 21.0182 0.007755 0.045983 -3.020363
2011-04-20 11:35:06 51°44.173 2°44.124 20.8724 0.007652 0.045442 -3.020363
2011-04-20 11:36:06 51°43.939 2°44.05 20.8842 0.007652 0.045417 -3.020363
2011-04-20 11:37:06 51°43.71 2°43.93 20.932 0.007652 0.045412 -3.020363
2011-04-20 11:38:06 51°43.485 2°43.799 20.9481 0.007652 0.045415 -3.020363
2011-04-20 11:39:06 51°43.251 2°43.762 20.8783 0.007652 0.045425 -3.020363
2011-04-20 11:40:06 51°43.019 2°43.68 20.937 0.007652 0.045416 -3.020363
2011-04-20 11:41:06 51°42.791 2°43.574 20.9277 0.007652 0.045422 -3.020363
2011-04-20 11:42:06 51°42.564 2°43.463 20.9441 0.007652 0.045427 -3.020363
2011-04-20 11:43:06 51°42.338 2°43.345 20.9638 0.007652 0.045429 -3.020363
2011-04-20 11:44:06 51°42.114 2°43.314 20.8725 0.007652 0.045449 -3.020363
2011-04-20 11:45:06 51°41.883 2°43.318 20.9456 0.007652 0.045446 -3.020363
2011-04-20 11:46:06 51°41.66 2°43.205 20.937 0.007652 0.045456 -3.020363
2011-04-20 11:47:06 51°41.448 2°43.045 20.9317 0.007652 0.045463 -3.020363
2011-04-20 11:48:06 51°41.243 2°42.859 20.9469 0.007652 0.045467 -3.020363
2011-04-20 11:49:06 51°41.042 2°42.665 21.0087 0.007652 0.045472 -3.020363
2011-04-20 11:50:06 51°40.815 2°42.617 20.9496 0.007652 0.045475 -3.020363
2011-04-20 11:51:06 51°40.582 2°42.589 20.9494 0.007652 0.045475 -3.020363
2011-04-20 11:52:06 51°40.359 2°42.473 20.9591 0.007652 0.045477 -3.020363
2011-04-20 11:53:06 51°40.153 2°42.295 20.9737 0.007652 0.045479 -3.020363
2011-04-20 11:54:06 51°39.958 2°42.089 20.9916 0.007652 0.04548 -3.020363
2011-04-20 11:55:06 51°39.747 2°41.932 20.9985 0.007652 0.045482 -3.020363
2011-04-20 11:56:06 51°39.519 2°41.856 20.9861 0.007652 0.045483 -3.020363
2011-04-20 11:57:06 51°39.291 2°41.855 20.9466 0.007652 0.045484 -3.020363
2011-04-20 11:58:06 51°39.06 2°41.854 20.9838 0.007652 0.045483 -3.020363
2011-04-20 11:59:06 51°38.839 2°41.742 20.9788 0.007652 0.045483 -3.020363
2011-04-20 12:00:06 51°38.632 2°41.574 20.9871 0.007652 0.045484 -3.020363
2011-04-20 12:01:06 51°38.427 2°41.407 20.9578 0.007652 0.045485 -3.020363
2011-04-20 12:02:06 51°38.227 2°41.226 20.967 0.007652 0.045487 -3.020363
2011-04-20 12:03:06 51°38.041 2°41.018 20.9824 0.007652 0.045489 -3.020363
2011-04-20 12:04:06 51°37.88 2°40.767 20.9732 0.007652 0.045491 -3.020363
2011-04-20 12:05:06 51°37.74 2°40.489 21.0443 0.007652 0.045493 -3.020363
2011-04-20 12:06:06 51°37.557 2°40.292 21.0319 0.007652 0.045496 -3.020363
2011-04-20 12:07:06 51°37.337 2°40.238 20.9913 0.007652 0.045499 -3.020363
2011-04-20 12:08:06 51°37.111 2°40.213 20.9541 0.007652 0.045502 -3.020363
2011-04-20 12:09:06 51°36.892 2°40.136 21.0009 0.007652 0.045504 -3.020363
2011-04-20 12:10:06 51°36.681 2°40.019 21.0154 0.007652 0.045507 -3.020363
2011-04-20 12:11:06 51°36.464 2°39.936 20.998 0.007652 0.045508 -3.020363
2011-04-20 12:12:06 51°36.245 2°39.871 21.0035 0.007652 0.045509 -3.020363
2011-04-20 12:13:06 51°36.029 2°39.783 21.0363 0.007652 0.04551 -3.020363
2011-04-20 12:14:06 51°35.81 2°39.742 20.9738 0.007652 0.045511 -3.020363
2011-04-20 12:15:06 51°35.589 2°39.701 21.0576 0.007652 0.045512 -3.020363
2011-04-20 12:16:06 51°35.369 2°39.687 20.9687 0.007652 0.045513 -3.020363
2011-04-20 12:17:06 51°35.162 2°39.578 21.0499 0.007652 0.045514 -3.020363
2011-04-20 12:18:06 51°34.951 2°39.482 20.9965 0.007652 0.045516 -3.020363
2011-04-20 12:19:06 51°34.747 2°39.362 21.0439 0.007652 0.045517 -3.020363
2011-04-20 12:20:06 51°34.536 2°39.275 21.0143 0.007652 0.045518 -3.020363
2011-04-20 12:21:06 51°34.334 2°39.152 21.0618 0.007652 0.045519 -3.020363
2011-04-20 12:22:06 51°34.121 2°39.079 21.017 0.007652 0.045519 -3.020363
2011-04-20 12:23:06 51°33.918 2°38.962 21.0633 0.007652 0.04552 -3.020363
2011-04-20 12:24:06 51°33.705 2°38.895 21.0169 0.007652 0.045521 -3.020363
2011-04-20 12:25:06 51°33.498 2°38.789 21.0559 0.007652 0.045522 -3.020363
2011-04-20 12:26:06 51°33.289 2°38.697 21.0507 0.007652 0.045522 -3.020363
2011-04-20 12:27:06 51°33.084 2°38.595 21.0694 0.00755 0.044978 -3.020363
2011-04-20 12:28:06 51°32.88 2°38.489 21.0332 0.007652 0.045523 -3.020363
2011-04-20 12:29:06 51°32.68 2°38.37 21.0442 0.00755 0.044979 -3.020363
2011-04-20 12:30:06 51°32.477 2°38.261 21.082 0.00755 0.044979 -3.020363
2011-04-20 12:31:06 51°32.268 2°38.173 21.0743 0.00755 0.04498 -3.020363
2011-04-20 12:32:06 51°32.069 2°38.058 21.0872 0.00755 0.044981 -3.020363
2011-04-20 12:33:06 51°31.861 2°37.994 21.0146 0.00755 0.044981 -3.020363
2011-04-20 12:34:06 51°31.665 2°37.874 21.0509 0.00755 0.044982 -3.020363
2011-04-20 12:35:06 51°31.466 2°37.771 21.0759 0.00755 0.044982 -3.020363
2011-04-20 12:36:06 51°31.275 2°37.652 21.054 0.00755 0.044983 -3.020363
2011-04-20 12:37:06 51°31.086 2°37.522 21.0881 0.00755 0.044984 -3.020363
2011-04-20 12:38:06 51°30.882 2°37.444 21.0466 0.00755 0.044985 -3.020363
2011-04-20 12:39:06 51°30.687 2°37.327 21.1058 0.00755 0.044987 -3.020363
2011-04-20 12:40:06 51°30.485 2°37.235 21.0552 0.00755 0.044988 -3.020363
2011-04-20 12:41:06 51°30.284 2°37.143 21.0911 0.00755 0.044989 -3.020363
2011-04-20 12:42:06 51°30.091 2°37.021 21.1112 0.00755 0.044989 -3.020363
2011-04-20 12:43:06 51°29.89 2°36.929 21.0799 0.00755 0.04499 -3.020363
2011-04-20 12:44:06 51°29.697 2°36.81 21.1079 0.00755 0.04499 -3.020363
2011-04-20 12:45:06 51°29.492 2°36.741 21.0802 0.00755 0.04499 -3.020363
2011-04-20 12:46:06 51°29.286 2°36.691 21.0933 0.00755 0.04499 -3.020363
2011-04-20 12:47:06 51°29.079 2°36.724 21.1111 0.00755 0.044989 -3.020363
2011-04-20 12:48:06 51°28.891 2°36.91 21.06 0.00755 0.044988 -3.020363
2011-04-20 12:49:06 51°28.822 2°37.068 21.1744 0.00755 0.044987 -3.020363
2011-04-20 12:50:06 51°28.841 2°37.186 21.1683 0.00755 0.044984 -3.020363
2011-04-20 12:51:06 51°28.879 2°37.267 21.1407 0.00755 0.044982 -3.020363
2011-04-20 12:52:06 51°28.924 2°37.347 21.1632 0.00755 0.044979 -3.020363
2011-04-20 12:53:06 51°29.014 2°37.405 21.1637 0.00755 0.044976 -3.020363
2011-04-20 12:54:06 51°29.102 2°37.367 21.1347 0.00755 0.044973 -3.020363
2011-04-20 12:55:06 51°29.145 2°37.323 21.1616 0.00755 0.04497 -3.020363
2011-04-20 12:56:06 51°29.152 2°37.268 21.1485 0.00755 0.04497 -3.020363
2011-04-20 12:57:06 51°29.127 2°37.202 21.1577 0.00755 0.044969 -3.020363
2011-04-20 12:58:06 51°29.084 2°37.162 21.1488 0.00755 0.044968 -3.020363
2011-04-20 12:59:06 51°29.045 2°37.162 21.1866 0.00755 0.044966 -3.020363
2011-04-20 13:00:06 51°29.012 2°37.196 21.2104 0.00755 0.044964 -3.020363
2011-04-20 13:01:06 51°28.994 2°37.293 21.2336 0.00755 0.044961 -3.020363
2011-04-20 13:02:06 51°29.044 2°37.402 21.2302 0.00755 0.044958 -3.020363
2011-04-20 13:03:06 51°29.121 2°37.364 21.1465 0.00755 0.044954 -3.020363
2011-04-20 13:04:06 51°29.237 2°37.244 21.0685 0.00755 0.044951 -3.020363
2011-04-20 13:05:06 51°29.354 2°37.297 21.1397 0.00755 0.044951 -3.020363
2011-04-20 13:06:06 51°29.452 2°37.435 21.1724 0.00755 0.044951 -3.020363
2011-04-20 13:07:06 51°29.52 2°37.564 21.1946 0.00755 0.044951 -3.020363
2011-04-20 13:08:06 51°29.541 2°37.68 21.1922 0.00755 0.044951 -3.020363
2011-04-20 13:09:06 51°29.52 2°37.776 21.1859 0.00755 0.04495 -3.020363
2011-04-20 13:10:06 51°29.412 2°37.782 21.2337 0.00755 0.044949 -3.020363
2011-04-20 13:11:06 51°29.219 2°37.811 21.2076 0.00755 0.044947 -3.020363
2011-04-20 13:12:06 51°29.017 2°37.869 21.2006 0.00755 0.044945 -3.020363
2011-04-20 13:13:06 51°28.821 2°37.969 21.1507 0.00755 0.044944 -3.020363
2011-04-20 13:14:06 51°28.629 2°38.117 21.2446 0.00755 0.044942 -3.020363
2011-04-20 13:15:06 51°28.461 2°38.331 21.1735 0.00755 0.044941 -3.020363
2011-04-20 13:16:06 51°28.287 2°38.534 21.1887 0.00755 0.044939 -3.020363
2011-04-20 13:17:06 51°28.117 2°38.741 21.1985 0.00755 0.044937 -3.020363
2011-04-20 13:18:06 51°27.962 2°38.986 21.1864 0.00755 0.044935 -3.020363
2011-04-20 13:19:06 51°27.796 2°39.211 21.1799 0.00755 0.044932 -3.020363
2011-04-20 13:20:06 51°27.612 2°39.38 21.2429 0.00755 0.04493 -3.020363
2011-04-20 13:21:06 51°27.442 2°39.589 21.1776 0.00755 0.044926 -3.020363
2011-04-20 13:22:06 51°27.264 2°39.779 21.1899 0.00755 0.044923 -3.020363
2011-04-20 13:23:06 51°27.08 2°39.952 21.2296 0.00755 0.04492 -3.020363
2011-04-20 13:24:06 51°26.895 2°40.122 21.2186 0.00755 0.044916 -3.020363
2011-04-20 13:25:06 51°26.702 2°40.263 21.2234 0.00755 0.044912 -3.020363
2011-04-20 13:26:06 51°26.508 2°40.398 21.258 0.00755 0.044908 -3.020363
2011-04-20 13:27:06 51°26.323 2°40.546 21.2525 0.00755 0.044904 -3.020363
2011-04-20 13:28:06 51°26.148 2°40.718 21.2396 0.00755 0.044899 -3.020363
2011-04-20 13:29:06 51°25.971 2°40.882 21.2546 0.00755 0.044895 -3.020363
2011-04-20 13:30:06 51°25.796 2°41.056 21.2875 0.00755 0.04489 -3.020363
2011-04-20 13:31:06 51°25.644 2°41.29 21.2397 0.00755 0.044886 -3.020363
2011-04-20 13:32:06 51°25.494 2°41.534 21.2463 0.00755 0.044882 -3.020363
2011-04-20 13:33:06 51°25.327 2°41.734 21.2473 0.00755 0.044878 -3.020363
2011-04-20 13:34:06 51°25.158 2°41.927 21.2609 0.00755 0.044874 -3.020363
2011-04-20 13:35:06 51°24.985 2°42.101 21.253 0.00755 0.04487 -3.020363
2011-04-20 13:36:06 51°24.822 2°42.309 21.2365 0.00755 0.044866 -3.020363
2011-04-20 13:37:06 51°24.651 2°42.499 21.2985 0.007652 0.045406 -3.020363
2011-04-20 13:38:06 51°24.485 2°42.709 21.2935 0.00755 0.04486 -3.020363
2011-04-20 13:39:06 51°24.325 2°42.936 21.2818 0.00755 0.044857 -3.020363
2011-04-20 13:40:06 51°24.152 2°43.128 21.2989 0.00755 0.044854 -3.020363
2011-04-20 13:41:06 51°23.988 2°43.334 21.2721 0.007652 0.045393 -3.020363
2011-04-20 13:42:06 51°23.825 2°43.548 21.325 0.007652 0.045389 -3.020363
2011-04-20 13:43:06 51°23.666 2°43.77 21.3127 0.007652 0.045385 -3.020363
2011-04-20 13:44:06 51°23.499 2°43.977 21.2682 0.007652 0.045382 -3.020363
2011-04-20 13:45:06 51°23.331 2°44.183 21.3277 0.007652 0.045378 -3.020363
2011-04-20 13:46:06 51°23.163 2°44.391 21.33 0.007652 0.045374 -3.020363
2011-04-20 13:47:06 51°22.992 2°44.597 21.3417 0.007652 0.04537 -3.020363
2011-04-20 13:48:06 51°22.82 2°44.801 21.355 0.007652 0.045367 -3.020363
2011-04-20 13:49:06 51°22.65 2°45.01 21.3578 0.007652 0.045363 -3.020363
2011-04-20 13:50:06 51°22.477 2°45.211 21.3682 0.007652 0.045358 -3.020363
2011-04-20 13:51:06 51°22.311 2°45.429 21.3194 0.007652 0.045355 -3.020363
2011-04-20 13:52:06 51°22.141 2°45.637 21.3618 0.007652 0.045351 -3.020363
2011-04-20 13:53:06 51°21.976 2°45.854 21.3598 0.007652 0.045347 -3.020363
2011-04-20 13:54:06 51°21.826 2°46.091 21.3411 0.007652 0.045344 -3.020363
2011-04-20 13:55:06 51°21.67 2°46.311 21.3926 0.007652 0.04534 -3.020363
2011-04-20 13:56:06 51°21.515 2°46.539 21.3926 0.007652 0.045337 -3.020363
2011-04-20 13:57:06 51°21.359 2°46.771 21.3609 0.007652 0.045333 -3.020363
2011-04-20 13:58:06 51°21.199 2°46.999 21.3857 0.007652 0.04533 -3.020363
2011-04-20 13:59:06 51°21.039 2°47.234 21.3405 0.007652 0.045327 -3.020363
2011-04-20 14:00:06 51°20.87 2°47.456 21.3972 0.007652 0.045323 -3.020363
2011-04-20 14:01:06 51°20.7 2°47.674 21.4125 0.007652 0.045319 -3.020363
2011-04-20 14:02:06 51°20.522 2°47.874 21.4001 0.007652 0.045316 -3.020363
2011-04-20 14:03:06 51°20.355 2°48.099 21.417 0.007652 0.045313 -3.020363
2011-04-20 14:04:06 51°20.188 2°48.324 21.3979 0.007652 0.045309 -3.020363
2011-04-20 14:05:06 51°20.024 2°48.545 21.4422 0.007652 0.045305 -3.020363
2011-04-20 14:06:06 51°19.862 2°48.763 21.4007 0.007652 0.045302 -3.020363
2011-04-20 14:07:06 51°19.703 2°48.994 21.4739 0.007652 0.045298 -3.020363
2011-04-20 14:08:06 51°19.562 2°49.263 21.4153 0.007652 0.045294 -3.020363
2011-04-20 14:09:06 51°19.411 2°49.515 21.4436 0.007652 0.04529 -3.020363
2011-04-20 14:10:06 51°19.254 2°49.757 21.4509 0.007652 0.045287 -3.020363
2011-04-20 14:11:06 51°19.083 2°49.961 21.4929 0.007652 0.045283 -3.020363
2011-04-20 14:12:06 51°18.916 2°50.182 21.4551 0.007652 0.045279 -3.020363
2011-04-20 14:13:06 51°18.753 2°50.406 21.513 0.007652 0.045276 -3.020363
2011-04-20 14:14:06 51°18.604 2°50.66 21.4799 0.007652 0.045273 -3.020363
2011-04-20 14:15:06 51°18.445 2°50.887 21.4858 0.007652 0.04527 -3.020363
2011-04-20 14:16:06 51°18.279 2°51.101 21.5099 0.007652 0.045266 -3.020363
2011-04-20 14:17:06 51°18.111 2°51.306 21.5056 0.007652 0.045264 -3.020363
2011-04-20 14:18:06 51°17.939 2°51.502 21.5305 0.007652 0.045261 -3.020363
2011-04-20 14:19:06 51°17.768 2°51.698 21.5175 0.007652 0.045259 -3.020363
2011-04-20 14:20:06 51°17.596 2°51.889 21.5545 0.007652 0.045256 -3.020363
2011-04-20 14:21:06 51°17.425 2°52.078 21.5474 0.007652 0.045254 -3.020363
2011-04-20 14:22:06 51°17.25 2°52.26 21.5634 0.007652 0.045252 -3.020363
2011-04-20 14:23:06 51°17.076 2°52.444 21.5841 0.007652 0.045249 -3.020363
2011-04-20 14:24:06 51°16.902 2°52.631 21.5419 0.007652 0.045247 -3.020363
2011-04-20 14:25:06 51°16.723 2°52.807 21.5813 0.007652 0.045245 -3.020363
2011-04-20 14:26:06 51°16.542 2°52.985 21.5783 0.007652 0.045243 -3.020363
2011-04-20 14:27:06 51°16.361 2°53.162 21.5435 0.007652 0.045241 -3.020363
2011-04-20 14:28:06 51°16.173 2°53.31 21.5875 0.007652 0.045239 -3.020363
2011-04-20 14:29:06 51°15.979 2°53.429 21.595 0.007652 0.045237 -3.020363
2011-04-20 14:30:06 51°15.784 2°53.532 21.6499 0.007652 0.045236 -3.020363
2011-04-20 14:31:06 51°15.599 2°53.69 21.7119 0.007652 0.045233 -3.020363
2011-04-20 14:32:06 51°15.429 2°53.9 21.5564 0.007652 0.045231 -3.020363
2011-04-20 14:33:06 51°15.257 2°54.099 21.6147 0.007652 0.045228 -3.020363
2011-04-20 14:34:06 51°15.092 2°54.296 21.6318 0.007652 0.045226 -3.020363
2011-04-20 14:35:06 51°14.951 2°54.507 21.5687 0.007652 0.045223 -3.020363
2011-04-20 14:36:06 51°14.799 2°54.708 21.604 0.007652 0.04522 -3.020363
2011-04-20 14:37:06 51°14.635 2°54.892 21.6666 0.007652 0.045217 -3.020363
2011-04-20 14:38:06 51°14.463 2°55.061 21.7049 0.007652 0.045214 -3.020363
2011-04-20 14:39:07 51°14.297 2°55.241 21.657 0.007652 0.045211 -3.020363
2011-04-20 14:40:07 51°14.169 2°55.375 21.7286 0.007652 0.045208 -3.020363
2011-04-20 14:41:07 51°14.035 2°55.478 21.7398 0.007652 0.045205 -3.020363
2011-04-20 14:42:06 51°13.91 2°55.566 21.7462 0.007652 0.045202 -3.020363
2011-04-20 14:43:06 51°13.802 2°55.647 21.7849 0.007652 0.045197 -3.020363
2011-04-20 14:44:06 51°13.714 2°55.75 21.8506 0.007652 0.045194 -3.020363
2011-04-20 14:45:07 51°13.681 2°55.862 21.8036 0.007652 0.04519 -3.020363
2011-04-20 14:46:07 51°13.667 2°55.94 21.7651 0.007652 0.045185 -3.020363